sensor_id;sensor_type;location;lat;lon;timestamp;temperature;humidity
20568;DHT22;10442;49.932;11.592;2023-04-03T00:00:56;6.20;62.50
20568;DHT22;10442;49.932;11.592;2023-04-03T00:03:24;6.20;62.70
20568;DHT22;10442;49.932;11.592;2023-04-03T00:05:51;6.30;62.60
20568;DHT22;10442;49.932;11.592;2023-04-03T00:08:19;6.30;62.70
20568;DHT22;10442;49.932;11.592;2023-04-03T00:10:47;6.30;62.60
20568;DHT22;10442;49.932;11.592;2023-04-03T00:13:15;6.30;62.60
20568;DHT22;10442;49.932;11.592;2023-04-03T00:15:43;6.30;62.60
20568;DHT22;10442;49.932;11.592;2023-04-03T00:18:10;6.30;62.50
20568;DHT22;10442;49.932;11.592;2023-04-03T00:20:38;6.40;62.60
20568;DHT22;10442;49.932;11.592;2023-04-03T00:23:06;6.40;62.50
20568;DHT22;10442;49.932;11.592;2023-04-03T00:25:34;6.40;62.40
20568;DHT22;10442;49.932;11.592;2023-04-03T00:28:03;6.40;62.20
20568;DHT22;10442;49.932;11.592;2023-04-03T00:30:31;6.40;62.00
20568;DHT22;10442;49.932;11.592;2023-04-03T00:32:59;6.40;62.20
20568;DHT22;10442;49.932;11.592;2023-04-03T00:35:28;6.40;62.40
20568;DHT22;10442;49.932;11.592;2023-04-03T00:37:56;6.40;62.40
20568;DHT22;10442;49.932;11.592;2023-04-03T00:40:26;6.40;62.40
20568;DHT22;10442;49.932;11.592;2023-04-03T00:42:58;6.40;62.50
20568;DHT22;10442;49.932;11.592;2023-04-03T00:45:48;6.40;62.70
20568;DHT22;10442;49.932;11.592;2023-04-03T00:48:23;6.40;63.70
20568;DHT22;10442;49.932;11.592;2023-04-03T00:50:52;6.40;62.90
20568;DHT22;10442;49.932;11.592;2023-04-03T00:53:27;6.40;63.00
20568;DHT22;10442;49.932;11.592;2023-04-03T00:55:57;6.40;63.20
20568;DHT22;10442;49.932;11.592;2023-04-03T00:58:34;6.40;63.30
20568;DHT22;10442;49.932;11.592;2023-04-03T01:01:08;6.40;63.40
20568;DHT22;10442;49.932;11.592;2023-04-03T01:03:37;6.40;63.40
20568;DHT22;10442;49.932;11.592;2023-04-03T01:06:05;6.40;63.40
20568;DHT22;10442;49.932;11.592;2023-04-03T01:08:33;6.40;63.60
20568;DHT22;10442;49.932;11.592;2023-04-03T01:11:00;6.40;63.70
20568;DHT22;10442;49.932;11.592;2023-04-03T01:13:30;6.40;63.90
20568;DHT22;10442;49.932;11.592;2023-04-03T01:16:01;6.40;63.80
20568;DHT22;10442;49.932;11.592;2023-04-03T01:18:30;6.40;63.80
20568;DHT22;10442;49.932;11.592;2023-04-03T01:26:18;6.40;64.10
20568;DHT22;10442;49.932;11.592;2023-04-03T01:28:45;6.40;64.20
20568;DHT22;10442;49.932;11.592;2023-04-03T01:31:43;6.40;64.20
20568;DHT22;10442;49.932;11.592;2023-04-03T01:34:11;6.50;64.20
20568;DHT22;10442;49.932;11.592;2023-04-03T01:36:38;6.50;64.20
20568;DHT22;10442;49.932;11.592;2023-04-03T01:39:07;6.50;64.30
20568;DHT22;10442;49.932;11.592;2023-04-03T01:41:34;6.40;64.30
20568;DHT22;10442;49.932;11.592;2023-04-03T01:44:10;6.50;64.40
20568;DHT22;10442;49.932;11.592;2023-04-03T01:46:37;6.40;64.50
20568;DHT22;10442;49.932;11.592;2023-04-03T01:49:05;6.40;64.60
20568;DHT22;10442;49.932;11.592;2023-04-03T01:51:32;6.40;64.60
20568;DHT22;10442;49.932;11.592;2023-04-03T01:54:00;6.40;65.40
20568;DHT22;10442;49.932;11.592;2023-04-03T01:56:27;6.40;64.80
20568;DHT22;10442;49.932;11.592;2023-04-03T01:58:55;6.40;64.90
20568;DHT22;10442;49.932;11.592;2023-04-03T02:01:23;6.40;64.90
20568;DHT22;10442;49.932;11.592;2023-04-03T02:03:50;6.30;64.80
20568;DHT22;10442;49.932;11.592;2023-04-03T02:06:18;6.30;64.90
20568;DHT22;10442;49.932;11.592;2023-04-03T02:08:45;6.30;65.10
20568;DHT22;10442;49.932;11.592;2023-04-03T02:11:12;6.30;65.20
20568;DHT22;10442;49.932;11.592;2023-04-03T02:13:39;6.30;65.40
20568;DHT22;10442;49.932;11.592;2023-04-03T02:16:08;6.30;65.60
20568;DHT22;10442;49.932;11.592;2023-04-03T02:18:38;6.30;65.60
20568;DHT22;10442;49.932;11.592;2023-04-03T02:21:05;6.30;65.50
20568;DHT22;10442;49.932;11.592;2023-04-03T02:23:33;6.30;65.60
20568;DHT22;10442;49.932;11.592;2023-04-03T02:26:19;6.30;65.60
20568;DHT22;10442;49.932;11.592;2023-04-03T02:28:47;6.30;65.70
20568;DHT22;10442;49.932;11.592;2023-04-03T02:31:14;6.30;65.50
20568;DHT22;10442;49.932;11.592;2023-04-03T02:33:43;6.20;65.50
20568;DHT22;10442;49.932;11.592;2023-04-03T02:36:13;6.20;65.50
20568;DHT22;10442;49.932;11.592;2023-04-03T02:38:43;6.20;65.60
20568;DHT22;10442;49.932;11.592;2023-04-03T02:41:12;6.20;65.50
20568;DHT22;10442;49.932;11.592;2023-04-03T02:43:40;6.20;65.60
20568;DHT22;10442;49.932;11.592;2023-04-03T02:46:08;6.10;65.70
20568;DHT22;10442;49.932;11.592;2023-04-03T02:48:36;6.10;65.70
20568;DHT22;10442;49.932;11.592;2023-04-03T02:51:04;6.10;65.90
20568;DHT22;10442;49.932;11.592;2023-04-03T02:53:31;6.10;65.90
20568;DHT22;10442;49.932;11.592;2023-04-03T02:56:04;6.10;65.80
20568;DHT22;10442;49.932;11.592;2023-04-03T02:58:31;6.10;65.90
20568;DHT22;10442;49.932;11.592;2023-04-03T03:00:59;6.10;65.80
20568;DHT22;10442;49.932;11.592;2023-04-03T03:03:27;6.10;65.90
20568;DHT22;10442;49.932;11.592;2023-04-03T03:06:11;6.10;65.90
20568;DHT22;10442;49.932;11.592;2023-04-03T03:08:40;6.10;66.10
20568;DHT22;10442;49.932;11.592;2023-04-03T03:11:08;6.00;65.90
20568;DHT22;10442;49.932;11.592;2023-04-03T03:13:36;6.00;65.90
20568;DHT22;10442;49.932;11.592;2023-04-03T03:16:03;6.00;66.00
20568;DHT22;10442;49.932;11.592;2023-04-03T03:18:31;5.90;65.90
20568;DHT22;10442;49.932;11.592;2023-04-03T03:21:00;5.90;66.10
20568;DHT22;10442;49.932;11.592;2023-04-03T03:23:29;5.90;66.10
20568;DHT22;10442;49.932;11.592;2023-04-03T03:26:09;5.90;66.30
20568;DHT22;10442;49.932;11.592;2023-04-03T03:28:38;5.90;66.20
20568;DHT22;10442;49.932;11.592;2023-04-03T03:31:08;5.90;66.10
20568;DHT22;10442;49.932;11.592;2023-04-03T03:33:37;5.80;66.00
20568;DHT22;10442;49.932;11.592;2023-04-03T03:36:05;5.80;66.20
20568;DHT22;10442;49.932;11.592;2023-04-03T03:38:32;5.80;66.20
20568;DHT22;10442;49.932;11.592;2023-04-03T03:41:00;5.70;66.90
20568;DHT22;10442;49.932;11.592;2023-04-03T03:43:29;5.70;66.10
20568;DHT22;10442;49.932;11.592;2023-04-03T03:45:57;5.70;66.10
20568;DHT22;10442;49.932;11.592;2023-04-03T03:48:26;5.80;66.30
20568;DHT22;10442;49.932;11.592;2023-04-03T03:50:53;5.70;66.30
20568;DHT22;10442;49.932;11.592;2023-04-03T03:53:24;5.70;66.20
20568;DHT22;10442;49.932;11.592;2023-04-03T03:55:56;5.70;66.10
20568;DHT22;10442;49.932;11.592;2023-04-03T03:58:25;5.70;66.00
20568;DHT22;10442;49.932;11.592;2023-04-03T04:00:53;5.60;65.90
20568;DHT22;10442;49.932;11.592;2023-04-03T04:03:20;5.50;65.80
20568;DHT22;10442;49.932;11.592;2023-04-03T04:05:49;5.60;66.00
20568;DHT22;10442;49.932;11.592;2023-04-03T04:08:17;5.50;65.90
20568;DHT22;10442;49.932;11.592;2023-04-03T04:10:46;5.50;65.80
20568;DHT22;10442;49.932;11.592;2023-04-03T04:13:16;5.50;65.60
20568;DHT22;10442;49.932;11.592;2023-04-03T04:15:44;5.40;65.40
20568;DHT22;10442;49.932;11.592;2023-04-03T04:18:13;5.40;65.60
20568;DHT22;10442;49.932;11.592;2023-04-03T04:20:45;5.40;65.80
20568;DHT22;10442;49.932;11.592;2023-04-03T04:23:14;5.40;66.10
20568;DHT22;10442;49.932;11.592;2023-04-03T04:25:44;5.40;66.20
20568;DHT22;10442;49.932;11.592;2023-04-03T04:28:12;5.30;66.20
20568;DHT22;10442;49.932;11.592;2023-04-03T04:30:40;5.30;66.20
20568;DHT22;10442;49.932;11.592;2023-04-03T04:33:08;5.30;66.20
20568;DHT22;10442;49.932;11.592;2023-04-03T04:35:36;5.30;66.20
20568;DHT22;10442;49.932;11.592;2023-04-03T04:38:05;5.30;66.30
20568;DHT22;10442;49.932;11.592;2023-04-03T04:40:32;5.30;66.20
20568;DHT22;10442;49.932;11.592;2023-04-03T04:43:00;5.30;66.10
20568;DHT22;10442;49.932;11.592;2023-04-03T04:45:27;5.30;66.10
20568;DHT22;10442;49.932;11.592;2023-04-03T04:47:56;5.20;66.00
20568;DHT22;10442;49.932;11.592;2023-04-03T04:50:24;5.20;66.00
20568;DHT22;10442;49.932;11.592;2023-04-03T04:52:53;5.20;66.10
20568;DHT22;10442;49.932;11.592;2023-04-03T04:55:21;5.10;66.00
20568;DHT22;10442;49.932;11.592;2023-04-03T04:57:49;5.10;66.10
20568;DHT22;10442;49.932;11.592;2023-04-03T05:00:17;5.10;66.10
20568;DHT22;10442;49.932;11.592;2023-04-03T05:02:45;5.10;66.10
20568;DHT22;10442;49.932;11.592;2023-04-03T05:05:12;5.10;66.20
20568;DHT22;10442;49.932;11.592;2023-04-03T05:07:40;5.10;66.10
20568;DHT22;10442;49.932;11.592;2023-04-03T05:10:09;5.10;66.10
20568;DHT22;10442;49.932;11.592;2023-04-03T05:12:36;5.10;66.10
20568;DHT22;10442;49.932;11.592;2023-04-03T05:15:05;5.10;66.10
20568;DHT22;10442;49.932;11.592;2023-04-03T05:17:33;5.00;66.00
20568;DHT22;10442;49.932;11.592;2023-04-03T05:20:03;5.00;66.00
20568;DHT22;10442;49.932;11.592;2023-04-03T05:22:31;5.00;66.00
20568;DHT22;10442;49.932;11.592;2023-04-03T05:25:05;5.00;66.10
20568;DHT22;10442;49.932;11.592;2023-04-03T05:27:33;5.00;65.80
20568;DHT22;10442;49.932;11.592;2023-04-03T05:30:02;5.10;65.80
20568;DHT22;10442;49.932;11.592;2023-04-03T05:32:31;5.10;65.60
20568;DHT22;10442;49.932;11.592;2023-04-03T05:35:22;5.10;65.40
20568;DHT22;10442;49.932;11.592;2023-04-03T05:37:55;5.20;65.40
20568;DHT22;10442;49.932;11.592;2023-04-03T05:40:23;5.30;65.40
20568;DHT22;10442;49.932;11.592;2023-04-03T05:42:53;5.30;65.30
20568;DHT22;10442;49.932;11.592;2023-04-03T05:45:23;5.50;65.90
20568;DHT22;10442;49.932;11.592;2023-04-03T05:47:51;5.90;65.80
20568;DHT22;10442;49.932;11.592;2023-04-03T05:50:19;6.40;65.30
20568;DHT22;10442;49.932;11.592;2023-04-03T05:52:51;6.90;63.50
20568;DHT22;10442;49.932;11.592;2023-04-03T05:55:20;7.30;62.50
20568;DHT22;10442;49.932;11.592;2023-04-03T05:57:47;7.80;62.00
20568;DHT22;10442;49.932;11.592;2023-04-03T06:00:15;8.20;60.10
20568;DHT22;10442;49.932;11.592;2023-04-03T06:02:50;8.50;59.20
20568;DHT22;10442;49.932;11.592;2023-04-03T06:05:22;8.70;58.70
20568;DHT22;10442;49.932;11.592;2023-04-03T06:07:50;9.00;58.30
20568;DHT22;10442;49.932;11.592;2023-04-03T06:10:18;9.50;58.00
20568;DHT22;10442;49.932;11.592;2023-04-03T06:12:45;9.90;58.00
20568;DHT22;10442;49.932;11.592;2023-04-03T06:15:13;10.40;55.90
20568;DHT22;10442;49.932;11.592;2023-04-03T06:17:40;10.90;54.70
20568;DHT22;10442;49.932;11.592;2023-04-03T06:20:08;11.40;55.00
20568;DHT22;10442;49.932;11.592;2023-04-03T06:22:36;11.80;53.20
20568;DHT22;10442;49.932;11.592;2023-04-03T06:25:04;12.30;52.90
20568;DHT22;10442;49.932;11.592;2023-04-03T06:27:33;12.70;53.10
20568;DHT22;10442;49.932;11.592;2023-04-03T06:30:01;13.10;51.60
20568;DHT22;10442;49.932;11.592;2023-04-03T06:32:28;13.30;48.80
20568;DHT22;10442;49.932;11.592;2023-04-03T06:34:55;13.40;47.80
20568;DHT22;10442;49.932;11.592;2023-04-03T06:37:24;13.10;47.20
20568;DHT22;10442;49.932;11.592;2023-04-03T06:39:56;12.70;47.00
20568;DHT22;10442;49.932;11.592;2023-04-03T06:42:23;12.40;48.60
20568;DHT22;10442;49.932;11.592;2023-04-03T06:44:58;12.20;49.10
20568;DHT22;10442;49.932;11.592;2023-04-03T06:47:25;12.20;49.40
20568;DHT22;10442;49.932;11.592;2023-04-03T06:49:53;12.10;49.70
20568;DHT22;10442;49.932;11.592;2023-04-03T06:52:20;12.20;50.20
20568;DHT22;10442;49.932;11.592;2023-04-03T06:54:48;12.30;50.00
20568;DHT22;10442;49.932;11.592;2023-04-03T06:57:15;12.40;49.60
20568;DHT22;10442;49.932;11.592;2023-04-03T06:59:43;12.30;48.80
20568;DHT22;10442;49.932;11.592;2023-04-03T07:02:11;12.20;48.00
20568;DHT22;10442;49.932;11.592;2023-04-03T07:04:39;11.90;47.90
20568;DHT22;10442;49.932;11.592;2023-04-03T07:07:07;11.80;48.70
20568;DHT22;10442;49.932;11.592;2023-04-03T07:09:34;11.60;48.60
20568;DHT22;10442;49.932;11.592;2023-04-03T07:12:02;11.50;48.70
20568;DHT22;10442;49.932;11.592;2023-04-03T07:14:29;11.50;49.20
20568;DHT22;10442;49.932;11.592;2023-04-03T07:16:57;11.70;50.40
20568;DHT22;10442;49.932;11.592;2023-04-03T07:19:24;12.00;49.70
20568;DHT22;10442;49.932;11.592;2023-04-03T07:21:55;12.30;48.50
20568;DHT22;10442;49.932;11.592;2023-04-03T07:24:22;12.60;47.90
20568;DHT22;10442;49.932;11.592;2023-04-03T07:26:51;13.00;47.80
20568;DHT22;10442;49.932;11.592;2023-04-03T07:29:19;13.30;45.80
20568;DHT22;10442;49.932;11.592;2023-04-03T07:31:48;13.40;46.40
20568;DHT22;10442;49.932;11.592;2023-04-03T07:34:16;13.60;45.60
20568;DHT22;10442;49.932;11.592;2023-04-03T07:36:43;13.60;43.60
20568;DHT22;10442;49.932;11.592;2023-04-03T07:39:11;13.50;44.00
20568;DHT22;10442;49.932;11.592;2023-04-03T07:41:39;13.30;43.70
20568;DHT22;10442;49.932;11.592;2023-04-03T07:44:06;13.10;44.50
20568;DHT22;10442;49.932;11.592;2023-04-03T07:46:37;13.10;44.90
20568;DHT22;10442;49.932;11.592;2023-04-03T07:49:05;13.00;44.90
20568;DHT22;10442;49.932;11.592;2023-04-03T07:51:33;13.00;44.50
20568;DHT22;10442;49.932;11.592;2023-04-03T07:54:00;13.10;45.00
20568;DHT22;10442;49.932;11.592;2023-04-03T07:56:28;13.30;44.90
20568;DHT22;10442;49.932;11.592;2023-04-03T07:58:56;13.60;45.10
20568;DHT22;10442;49.932;11.592;2023-04-03T08:01:23;13.80;43.90
20568;DHT22;10442;49.932;11.592;2023-04-03T08:03:51;14.10;42.60
20568;DHT22;10442;49.932;11.592;2023-04-03T08:06:18;14.40;42.90
20568;DHT22;10442;49.932;11.592;2023-04-03T08:08:59;14.60;41.60
20568;DHT22;10442;49.932;11.592;2023-04-03T08:11:26;14.80;41.80
20568;DHT22;10442;49.932;11.592;2023-04-03T08:13:54;15.00;41.80
20568;DHT22;10442;49.932;11.592;2023-04-03T08:16:24;15.10;40.90
20568;DHT22;10442;49.932;11.592;2023-04-03T08:18:54;15.00;40.10
20568;DHT22;10442;49.932;11.592;2023-04-03T08:21:22;14.90;39.60
20568;DHT22;10442;49.932;11.592;2023-04-03T08:23:50;14.80;40.10
20568;DHT22;10442;49.932;11.592;2023-04-03T08:26:20;14.60;39.50
20568;DHT22;10442;49.932;11.592;2023-04-03T08:28:48;14.40;39.30
20568;DHT22;10442;49.932;11.592;2023-04-03T08:31:18;14.20;40.20
20568;DHT22;10442;49.932;11.592;2023-04-03T08:33:47;14.10;39.80
20568;DHT22;10442;49.932;11.592;2023-04-03T08:36:19;13.80;39.90
20568;DHT22;10442;49.932;11.592;2023-04-03T08:38:47;13.60;39.80
20568;DHT22;10442;49.932;11.592;2023-04-03T08:41:20;13.60;40.40
20568;DHT22;10442;49.932;11.592;2023-04-03T08:44:26;13.70;40.30
20568;DHT22;10442;49.932;11.592;2023-04-03T08:47:11;14.00;39.80
20568;DHT22;10442;49.932;11.592;2023-04-03T08:49:53;14.00;39.40
20568;DHT22;10442;49.932;11.592;2023-04-03T08:52:38;14.10;39.50
20568;DHT22;10442;49.932;11.592;2023-04-03T08:55:16;14.10;39.20
20568;DHT22;10442;49.932;11.592;2023-04-03T08:57:46;14.20;39.90
20568;DHT22;10442;49.932;11.592;2023-04-03T09:00:19;14.40;40.10
20568;DHT22;10442;49.932;11.592;2023-04-03T09:02:55;14.60;39.40
20568;DHT22;10442;49.932;11.592;2023-04-03T09:10:45;15.30;37.50
20568;DHT22;10442;49.932;11.592;2023-04-03T09:13:54;15.50;37.90
20568;DHT22;10442;49.932;11.592;2023-04-03T09:16:56;15.60;36.70
20568;DHT22;10442;49.932;11.592;2023-04-03T09:22:20;15.80;36.50
20568;DHT22;10442;49.932;11.592;2023-04-03T09:27:45;15.90;35.90
20568;DHT22;10442;49.932;11.592;2023-04-03T09:30:18;15.80;35.70
20568;DHT22;10442;49.932;11.592;2023-04-03T09:32:47;15.60;35.30
20568;DHT22;10442;49.932;11.592;2023-04-03T09:35:26;15.40;35.30
20568;DHT22;10442;49.932;11.592;2023-04-03T09:40:50;14.60;35.30
20568;DHT22;10442;49.932;11.592;2023-04-03T09:43:21;14.20;35.60
20568;DHT22;10442;49.932;11.592;2023-04-03T09:45:50;13.80;35.80
20568;DHT22;10442;49.932;11.592;2023-04-03T09:48:21;13.50;36.10
20568;DHT22;10442;49.932;11.592;2023-04-03T09:55:59;12.70;37.90
20568;DHT22;10442;49.932;11.592;2023-04-03T09:58:29;12.50;37.60
20568;DHT22;10442;49.932;11.592;2023-04-03T10:06:37;12.10;38.80
20568;DHT22;10442;49.932;11.592;2023-04-03T10:09:17;12.10;38.50
20568;DHT22;10442;49.932;11.592;2023-04-03T10:14:25;11.90;39.00
20568;DHT22;10442;49.932;11.592;2023-04-03T10:17:17;11.70;38.90
20568;DHT22;10442;49.932;11.592;2023-04-03T10:22:50;11.20;39.40
20568;DHT22;10442;49.932;11.592;2023-04-03T10:28:12;10.80;39.60
20568;DHT22;10442;49.932;11.592;2023-04-03T10:30:52;10.60;40.40
20568;DHT22;10442;49.932;11.592;2023-04-03T10:33:46;10.40;41.40
20568;DHT22;10442;49.932;11.592;2023-04-03T10:39:22;10.30;41.60
20568;DHT22;10442;49.932;11.592;2023-04-03T10:47:41;9.90;42.30
20568;DHT22;10442;49.932;11.592;2023-04-03T10:50:37;9.80;42.40
20568;DHT22;10442;49.932;11.592;2023-04-03T10:53:15;9.70;42.40
20568;DHT22;10442;49.932;11.592;2023-04-03T10:56:10;9.70;42.80
20568;DHT22;10442;49.932;11.592;2023-04-03T10:58:43;9.60;42.50
20568;DHT22;10442;49.932;11.592;2023-04-03T11:01:16;9.60;42.50
20568;DHT22;10442;49.932;11.592;2023-04-03T11:03:50;9.70;42.60
20568;DHT22;10442;49.932;11.592;2023-04-03T11:06:21;9.60;42.50
20568;DHT22;10442;49.932;11.592;2023-04-03T11:08:54;9.60;42.40
20568;DHT22;10442;49.932;11.592;2023-04-03T11:11:31;9.70;42.30
20568;DHT22;10442;49.932;11.592;2023-04-03T11:14:13;9.70;42.20
20568;DHT22;10442;49.932;11.592;2023-04-03T11:16:59;9.70;42.10
20568;DHT22;10442;49.932;11.592;2023-04-03T11:19:44;9.70;42.10
20568;DHT22;10442;49.932;11.592;2023-04-03T11:22:25;9.70;42.00
20568;DHT22;10442;49.932;11.592;2023-04-03T11:25:04;9.70;42.20
20568;DHT22;10442;49.932;11.592;2023-04-03T11:30:23;9.60;42.70
20568;DHT22;10442;49.932;11.592;2023-04-03T11:33:18;9.60;42.90
20568;DHT22;10442;49.932;11.592;2023-04-03T11:35:52;9.70;42.90
20568;DHT22;10442;49.932;11.592;2023-04-03T11:38:25;9.60;43.30
20568;DHT22;10442;49.932;11.592;2023-04-03T11:40:55;9.50;42.50
20568;DHT22;10442;49.932;11.592;2023-04-03T11:43:26;9.50;42.60
20568;DHT22;10442;49.932;11.592;2023-04-03T11:46:00;9.60;42.50
20568;DHT22;10442;49.932;11.592;2023-04-03T11:53:33;9.50;41.80
20568;DHT22;10442;49.932;11.592;2023-04-03T12:01:46;9.50;42.90
20568;DHT22;10442;49.932;11.592;2023-04-03T12:04:16;9.60;42.50
20568;DHT22;10442;49.932;11.592;2023-04-03T12:11:51;9.70;42.30
20568;DHT22;10442;49.932;11.592;2023-04-03T12:14:22;9.70;42.80
20568;DHT22;10442;49.932;11.592;2023-04-03T12:16:53;9.70;42.70
20568;DHT22;10442;49.932;11.592;2023-04-03T12:22:11;9.80;42.30
20568;DHT22;10442;49.932;11.592;2023-04-03T12:24:45;9.80;41.90
20568;DHT22;10442;49.932;11.592;2023-04-03T12:27:21;9.80;41.80
20568;DHT22;10442;49.932;11.592;2023-04-03T12:29:58;9.80;41.80
20568;DHT22;10442;49.932;11.592;2023-04-03T12:43:13;9.70;42.00
20568;DHT22;10442;49.932;11.592;2023-04-03T12:45:47;9.70;42.20
20568;DHT22;10442;49.932;11.592;2023-04-03T12:48:18;9.70;42.30
20568;DHT22;10442;49.932;11.592;2023-04-03T12:50:50;9.70;41.90
20568;DHT22;10442;49.932;11.592;2023-04-03T12:53:29;9.80;42.60
20568;DHT22;10442;49.932;11.592;2023-04-03T12:56:27;9.80;42.20
20568;DHT22;10442;49.932;11.592;2023-04-03T12:59:20;9.80;42.10
20568;DHT22;10442;49.932;11.592;2023-04-03T13:01:57;9.80;41.70
20568;DHT22;10442;49.932;11.592;2023-04-03T13:04:27;9.80;41.30
20568;DHT22;10442;49.932;11.592;2023-04-03T13:06:54;9.70;41.50
20568;DHT22;10442;49.932;11.592;2023-04-03T13:09:28;9.70;41.90
20568;DHT22;10442;49.932;11.592;2023-04-03T13:12:02;9.70;41.70
20568;DHT22;10442;49.932;11.592;2023-04-03T13:14:31;9.70;41.60
20568;DHT22;10442;49.932;11.592;2023-04-03T13:17:06;9.60;41.30
20568;DHT22;10442;49.932;11.592;2023-04-03T13:19:37;9.60;41.70
20568;DHT22;10442;49.932;11.592;2023-04-03T13:22:11;9.60;41.60
20568;DHT22;10442;49.932;11.592;2023-04-03T13:24:46;9.60;41.60
20568;DHT22;10442;49.932;11.592;2023-04-03T13:27:15;9.60;41.50
20568;DHT22;10442;49.932;11.592;2023-04-03T13:29:48;9.60;41.90
20568;DHT22;10442;49.932;11.592;2023-04-03T13:32:22;9.60;41.20
20568;DHT22;10442;49.932;11.592;2023-04-03T13:34:51;9.70;41.30
20568;DHT22;10442;49.932;11.592;2023-04-03T13:37:30;9.70;41.30
20568;DHT22;10442;49.932;11.592;2023-04-03T13:40:00;9.60;40.70
20568;DHT22;10442;49.932;11.592;2023-04-03T13:42:31;9.60;40.70
20568;DHT22;10442;49.932;11.592;2023-04-03T13:47:39;9.40;40.50
20568;DHT22;10442;49.932;11.592;2023-04-03T13:55:26;9.30;41.20
20568;DHT22;10442;49.932;11.592;2023-04-03T14:00:55;9.30;41.30
20568;DHT22;10442;49.932;11.592;2023-04-03T14:03:31;9.30;41.50
20568;DHT22;10442;49.932;11.592;2023-04-03T14:05:59;9.30;41.60
20568;DHT22;10442;49.932;11.592;2023-04-03T14:08:27;9.30;41.70
20568;DHT22;10442;49.932;11.592;2023-04-03T14:11:16;9.30;41.50
20568;DHT22;10442;49.932;11.592;2023-04-03T14:13:45;9.20;41.60
20568;DHT22;10442;49.932;11.592;2023-04-03T14:16:16;9.30;41.70
20568;DHT22;10442;49.932;11.592;2023-04-03T14:18:48;9.20;41.40
20568;DHT22;10442;49.932;11.592;2023-04-03T14:21:19;9.20;41.60
20568;DHT22;10442;49.932;11.592;2023-04-03T14:23:47;9.30;41.30
20568;DHT22;10442;49.932;11.592;2023-04-03T14:26:21;9.30;41.30
20568;DHT22;10442;49.932;11.592;2023-04-03T14:28:52;9.40;41.20
20568;DHT22;10442;49.932;11.592;2023-04-03T14:31:21;9.40;41.00
20568;DHT22;10442;49.932;11.592;2023-04-03T14:33:49;9.40;41.10
20568;DHT22;10442;49.932;11.592;2023-04-03T14:36:22;9.40;41.20
20568;DHT22;10442;49.932;11.592;2023-04-03T14:38:51;9.50;41.40
20568;DHT22;10442;49.932;11.592;2023-04-03T14:41:22;9.50;41.50
20568;DHT22;10442;49.932;11.592;2023-04-03T14:43:51;9.50;41.40
20568;DHT22;10442;49.932;11.592;2023-04-03T14:46:25;9.40;41.50
20568;DHT22;10442;49.932;11.592;2023-04-03T14:49:14;9.40;41.60
20568;DHT22;10442;49.932;11.592;2023-04-03T14:51:41;9.40;41.50
20568;DHT22;10442;49.932;11.592;2023-04-03T14:54:15;9.30;41.50
20568;DHT22;10442;49.932;11.592;2023-04-03T14:56:43;9.20;40.80
20568;DHT22;10442;49.932;11.592;2023-04-03T14:59:12;9.20;40.90
20568;DHT22;10442;49.932;11.592;2023-04-03T15:01:41;9.20;40.70
20568;DHT22;10442;49.932;11.592;2023-04-03T15:04:17;9.20;41.10
20568;DHT22;10442;49.932;11.592;2023-04-03T15:06:46;9.20;40.60
20568;DHT22;10442;49.932;11.592;2023-04-03T15:09:23;9.20;41.00
20568;DHT22;10442;49.932;11.592;2023-04-03T15:11:53;9.10;41.30
20568;DHT22;10442;49.932;11.592;2023-04-03T15:14:21;9.10;41.60
20568;DHT22;10442;49.932;11.592;2023-04-03T15:17:05;9.00;41.80
20568;DHT22;10442;49.932;11.592;2023-04-03T15:19:36;9.00;42.20
20568;DHT22;10442;49.932;11.592;2023-04-03T15:22:04;8.90;41.90
20568;DHT22;10442;49.932;11.592;2023-04-03T15:24:32;8.80;41.80
20568;DHT22;10442;49.932;11.592;2023-04-03T15:27:00;8.80;41.40
20568;DHT22;10442;49.932;11.592;2023-04-03T15:29:28;8.70;41.20
20568;DHT22;10442;49.932;11.592;2023-04-03T15:31:55;8.60;41.70
20568;DHT22;10442;49.932;11.592;2023-04-03T15:34:23;8.60;41.60
20568;DHT22;10442;49.932;11.592;2023-04-03T15:36:50;8.60;41.70
20568;DHT22;10442;49.932;11.592;2023-04-03T15:39:21;8.50;41.60
20568;DHT22;10442;49.932;11.592;2023-04-03T15:41:49;8.60;41.40
20568;DHT22;10442;49.932;11.592;2023-04-03T15:44:19;8.50;41.50
20568;DHT22;10442;49.932;11.592;2023-04-03T15:46:48;8.50;41.20
20568;DHT22;10442;49.932;11.592;2023-04-03T15:49:19;8.50;41.20
20568;DHT22;10442;49.932;11.592;2023-04-03T15:51:48;8.50;41.40
20568;DHT22;10442;49.932;11.592;2023-04-03T15:54:16;8.60;41.50
20568;DHT22;10442;49.932;11.592;2023-04-03T15:56:43;8.50;41.40
20568;DHT22;10442;49.932;11.592;2023-04-03T15:59:11;8.50;41.60
20568;DHT22;10442;49.932;11.592;2023-04-03T16:01:39;8.50;41.90
20568;DHT22;10442;49.932;11.592;2023-04-03T16:04:08;8.50;42.20
20568;DHT22;10442;49.932;11.592;2023-04-03T16:06:37;8.50;41.70
20568;DHT22;10442;49.932;11.592;2023-04-03T16:09:05;8.50;41.60
20568;DHT22;10442;49.932;11.592;2023-04-03T16:11:33;8.50;41.50
20568;DHT22;10442;49.932;11.592;2023-04-03T16:14:03;8.50;41.30
20568;DHT22;10442;49.932;11.592;2023-04-03T16:16:30;8.40;41.40
20568;DHT22;10442;49.932;11.592;2023-04-03T16:18:57;8.40;41.60
20568;DHT22;10442;49.932;11.592;2023-04-03T16:21:26;8.30;41.70
20568;DHT22;10442;49.932;11.592;2023-04-03T16:23:55;8.30;41.70
20568;DHT22;10442;49.932;11.592;2023-04-03T16:26:23;8.20;41.90
20568;DHT22;10442;49.932;11.592;2023-04-03T16:28:50;8.20;41.90
20568;DHT22;10442;49.932;11.592;2023-04-03T16:31:18;8.20;41.40
20568;DHT22;10442;49.932;11.592;2023-04-03T16:33:46;8.10;41.50
20568;DHT22;10442;49.932;11.592;2023-04-03T16:36:14;8.00;41.40
20568;DHT22;10442;49.932;11.592;2023-04-03T16:38:41;7.90;41.50
20568;DHT22;10442;49.932;11.592;2023-04-03T16:41:09;7.90;41.50
20568;DHT22;10442;49.932;11.592;2023-04-03T16:43:36;7.80;41.50
20568;DHT22;10442;49.932;11.592;2023-04-03T16:46:04;7.80;41.50
20568;DHT22;10442;49.932;11.592;2023-04-03T16:48:31;7.70;41.50
20568;DHT22;10442;49.932;11.592;2023-04-03T16:50:59;7.60;41.50
20568;DHT22;10442;49.932;11.592;2023-04-03T16:53:27;7.60;41.90
20568;DHT22;10442;49.932;11.592;2023-04-03T16:55:57;7.60;41.90
20568;DHT22;10442;49.932;11.592;2023-04-03T16:58:24;7.50;42.10
20568;DHT22;10442;49.932;11.592;2023-04-03T17:00:52;7.50;41.90
20568;DHT22;10442;49.932;11.592;2023-04-03T17:03:21;7.40;41.90
20568;DHT22;10442;49.932;11.592;2023-04-03T17:05:50;7.40;42.20
20568;DHT22;10442;49.932;11.592;2023-04-03T17:08:18;7.40;42.50
20568;DHT22;10442;49.932;11.592;2023-04-03T17:10:45;7.30;42.20
20568;DHT22;10442;49.932;11.592;2023-04-03T17:13:13;7.30;42.10
20568;DHT22;10442;49.932;11.592;2023-04-03T17:15:40;7.30;42.50
20568;DHT22;10442;49.932;11.592;2023-04-03T17:18:08;7.20;42.60
20568;DHT22;10442;49.932;11.592;2023-04-03T17:20:35;7.20;42.80